ZXP02 EHRD-EHRD
Flight info
| Callsign | ZXP02 |
|---|---|
| Flight time | 0h 9m |
| Altitude | 1000 |
| Route | EHRD LOCAL FLIGHT |
| Aircraft | EC35/L-SDE3FGHIRWY/L |
Departure
| Time | 2026-05-04 13:58 |
|---|---|
| Airport | Rotterdam The Hague Airport (EHRD) |
Arrival
| Time | 2026-05-04 14:07 |
|---|---|
| Airport | Rotterdam The Hague Airport (EHRD) |
| Time | Latitude | Longitude | Altitude | Speed | Heading |
|---|---|---|---|---|---|
| 2026-05-04 13:55 | 51.95415 | 4.44128 | -11 ft | 0 kts | 327° |
| 2026-05-04 13:56 | 51.95417 | 4.44132 | -5 ft | 2 kts | 320° |
| 2026-05-04 13:57 | 51.95441 | 4.44141 | 114 ft | 10 kts | 328° |
| 2026-05-04 13:57 | 51.95547 | 4.44008 | 285 ft | 44 kts | 316° |
| 2026-05-04 13:58 | 51.94861 | 4.43201 | 668 ft | 126 kts | 138° |
| 2026-05-04 13:58 | 51.93546 | 4.45067 | 817 ft | 126 kts | 129° |
| 2026-05-04 13:58 | 51.92872 | 4.45903 | 886 ft | 121 kts | 142° |
| 2026-05-04 13:59 | 51.92194 | 4.46724 | 874 ft | 121 kts | 131° |
| 2026-05-04 13:59 | 51.91912 | 4.47182 | 798 ft | 126 kts | 126° |
| 2026-05-04 13:59 | 51.91540 | 4.48534 | 1011 ft | 102 kts | 66° |
| 2026-05-04 14:00 | 51.92072 | 4.49121 | 1150 ft | 87 kts | 11° |
| 2026-05-04 14:00 | 51.93396 | 4.49697 | 544 ft | 115 kts | 14° |
| 2026-05-04 14:00 | 51.94192 | 4.49697 | 356 ft | 119 kts | 352° |
| 2026-05-04 14:01 | 51.94985 | 4.50110 | 152 ft | 126 kts | 32° |
| 2026-05-04 14:01 | 51.95607 | 4.51153 | 121 ft | 135 kts | 44° |
| 2026-05-04 14:01 | 51.96836 | 4.53566 | 185 ft | 143 kts | 49° |
| 2026-05-04 14:02 | 51.97428 | 4.54839 | 185 ft | 141 kts | 54° |
| 2026-05-04 14:02 | 51.97850 | 4.56264 | 213 ft | 141 kts | 64° |
| 2026-05-04 14:02 | 51.98090 | 4.57807 | 228 ft | 144 kts | 85° |
| 2026-05-04 14:02 | 51.98086 | 4.59439 | 223 ft | 146 kts | 89° |
| 2026-05-04 14:03 | 51.98033 | 4.61080 | 229 ft | 145 kts | 92° |
| 2026-05-04 14:03 | 51.98140 | 4.62610 | 426 ft | 133 kts | 60° |
| 2026-05-04 14:03 | 51.98897 | 4.63212 | 416 ft | 128 kts | 341° |
| 2026-05-04 14:03 | 51.99681 | 4.62682 | 572 ft | 119 kts | 334° |
| 2026-05-04 14:04 | 51.99753 | 4.60509 | 891 ft | 121 kts | 226° |
| 2026-05-04 14:04 | 51.99208 | 4.59418 | 925 ft | 124 kts | 243° |
| 2026-05-04 14:04 | 51.99097 | 4.58001 | 855 ft | 132 kts | 273° |
| 2026-05-04 14:05 | 51.98842 | 4.54893 | 449 ft | 137 kts | 250° |
| 2026-05-04 14:05 | 51.98444 | 4.53543 | 441 ft | 132 kts | 242° |
| 2026-05-04 14:05 | 51.98020 | 4.52197 | 378 ft | 132 kts | 241° |
| 2026-05-04 14:06 | 51.97662 | 4.50842 | 338 ft | 131 kts | 252° |
| 2026-05-04 14:06 | 51.97407 | 4.49433 | 325 ft | 129 kts | 246° |
| 2026-05-04 14:06 | 51.97012 | 4.48129 | 290 ft | 128 kts | 238° |
| 2026-05-04 14:06 | 51.96588 | 4.46948 | 228 ft | 111 kts | 234° |
| 2026-05-04 14:07 | 51.96223 | 4.45998 | 132 ft | 88 kts | 233° |
| 2026-05-04 14:07 | 51.95931 | 4.45225 | 57 ft | 68 kts | 228° |
| 2026-05-04 14:07 | 51.95695 | 4.44653 | 31 ft | 55 kts | 226° |
| 2026-05-04 14:07 | 51.95526 | 4.44271 | 15 ft | 24 kts | 224° |
| 2026-05-04 14:08 | 51.95468 | 4.44234 | 3 ft | 6 kts | 258° |
| 2026-05-04 14:08 | 51.95468 | 4.44210 | 1 ft | 0 kts | 281° |
| 2026-05-04 14:08 | 51.95465 | 4.44196 | -4 ft | 1 kts | 11° |
| 2026-05-04 14:08 | 51.95463 | 4.44192 | -11 ft | 0 kts | 20° |
| 2026-05-04 14:17 | 51.95466 | 4.44200 | -11 ft | 0 kts | 146° |
| 2026-05-04 14:47 | 51.95465 | 4.44200 | -11 ft | 0 kts | 144° |
| 2026-05-04 14:47 | 51.95463 | 4.44196 | -11 ft | 0 kts | 152° |